sensor_id;sensor_type;location;lat;lon;timestamp;pressure;altitude;pressure_sealevel;temperature;humidity
75767;BME280;64378;55.596;13.014;2022-12-18T00:01:15;102654.69;;;19.59;28.80
75767;BME280;64378;55.596;13.014;2022-12-18T00:03:41;102651.75;;;19.54;28.78
75767;BME280;64378;55.596;13.014;2022-12-18T00:06:08;102654.28;;;19.49;28.59
75767;BME280;64378;55.596;13.014;2022-12-18T00:08:34;102659.78;;;19.43;28.84
75767;BME280;64378;55.596;13.014;2022-12-18T00:11:07;102659.81;;;19.36;28.67
75767;BME280;64378;55.596;13.014;2022-12-18T00:13:33;102667.59;;;19.33;28.63
75767;BME280;64378;55.596;13.014;2022-12-18T00:16:03;102656.44;;;19.28;28.92
75767;BME280;64378;55.596;13.014;2022-12-18T00:18:29;102663.41;;;19.24;28.76
75767;BME280;64378;55.596;13.014;2022-12-18T00:20:58;102654.78;;;19.20;28.94
75767;BME280;64378;55.596;13.014;2022-12-18T00:23:25;102658.78;;;19.18;28.85
75767;BME280;64378;55.596;13.014;2022-12-18T00:25:50;102657.28;;;19.15;28.86
75767;BME280;64378;55.596;13.014;2022-12-18T00:28:15;102665.06;;;19.12;28.93
75767;BME280;64378;55.596;13.014;2022-12-18T00:30:41;102659.19;;;19.08;28.74
75767;BME280;64378;55.596;13.014;2022-12-18T00:33:06;102651.41;;;19.05;28.86
75767;BME280;64378;55.596;13.014;2022-12-18T00:35:31;102658.97;;;19.03;28.79
75767;BME280;64378;55.596;13.014;2022-12-18T00:37:57;102647.41;;;19.01;28.98
75767;BME280;64378;55.596;13.014;2022-12-18T00:40:22;102646.13;;;18.97;28.68
75767;BME280;64378;55.596;13.014;2022-12-18T00:42:48;102659.81;;;18.97;28.81
75767;BME280;64378;55.596;13.014;2022-12-18T00:45:27;102662.16;;;18.94;29.00
75767;BME280;64378;55.596;13.014;2022-12-18T00:47:53;102659.41;;;18.94;29.10
75767;BME280;64378;55.596;13.014;2022-12-18T00:50:19;102654.34;;;18.91;28.89
75767;BME280;64378;55.596;13.014;2022-12-18T00:52:45;102642.78;;;18.89;29.01
75767;BME280;64378;55.596;13.014;2022-12-18T00:55:11;102649.31;;;18.88;28.82
75767;BME280;64378;55.596;13.014;2022-12-18T00:57:36;102651.19;;;18.87;29.05
75767;BME280;64378;55.596;13.014;2022-12-18T01:00:03;102661.28;;;18.87;28.98
75767;BME280;64378;55.596;13.014;2022-12-18T01:02:29;102664.44;;;18.84;29.09
75767;BME280;64378;55.596;13.014;2022-12-18T01:04:54;102656.25;;;18.84;29.15
75767;BME280;64378;55.596;13.014;2022-12-18T01:07:19;102658.97;;;18.84;28.99
75767;BME280;64378;55.596;13.014;2022-12-18T01:09:45;102663.63;;;18.83;29.09
75767;BME280;64378;55.596;13.014;2022-12-18T01:12:10;102658.34;;;18.82;29.22
75767;BME280;64378;55.596;13.014;2022-12-18T01:14:36;102658.34;;;18.82;29.17
75767;BME280;64378;55.596;13.014;2022-12-18T01:17:03;102661.31;;;18.80;29.21
75767;BME280;64378;55.596;13.014;2022-12-18T01:19:29;102668.66;;;18.80;29.05
75767;BME280;64378;55.596;13.014;2022-12-18T01:21:54;102678.75;;;18.79;28.93
75767;BME280;64378;55.596;13.014;2022-12-18T01:24:19;102670.75;;;18.78;29.10
75767;BME280;64378;55.596;13.014;2022-12-18T01:26:45;102680.84;;;18.77;29.18
75767;BME280;64378;55.596;13.014;2022-12-18T01:29:10;102681.06;;;18.76;29.38
75767;BME280;64378;55.596;13.014;2022-12-18T01:31:36;102682.97;;;18.75;29.33
75767;BME280;64378;55.596;13.014;2022-12-18T01:34:02;102682.72;;;18.77;29.24
75767;BME280;64378;55.596;13.014;2022-12-18T01:36:31;102673.06;;;18.74;29.02
75767;BME280;64378;55.596;13.014;2022-12-18T01:38:59;102684.84;;;18.75;29.21
75767;BME280;64378;55.596;13.014;2022-12-18T01:41:28;102680.22;;;18.75;29.38
75767;BME280;64378;55.596;13.014;2022-12-18T01:47:21;102680.63;;;18.72;29.37
75767;BME280;64378;55.596;13.014;2022-12-18T01:49:48;102673.47;;;18.71;29.23
75767;BME280;64378;55.596;13.014;2022-12-18T01:52:14;102672.44;;;18.72;29.17
75767;BME280;64378;55.596;13.014;2022-12-18T01:54:40;102674.34;;;18.72;29.08
75767;BME280;64378;55.596;13.014;2022-12-18T01:57:06;102668.00;;;18.71;29.47
75767;BME280;64378;55.596;13.014;2022-12-18T01:59:33;102670.97;;;18.70;29.13
75767;BME280;64378;55.596;13.014;2022-12-18T02:01:59;102676.22;;;18.71;29.01
75767;BME280;64378;55.596;13.014;2022-12-18T02:04:27;102670.13;;;18.69;29.45
75767;BME280;64378;55.596;13.014;2022-12-18T02:07:15;102664.66;;;18.69;29.20
75767;BME280;64378;55.596;13.014;2022-12-18T02:10:07;102673.91;;;18.68;29.21
75767;BME280;64378;55.596;13.014;2022-12-18T02:12:47;102674.13;;;18.67;29.03
75767;BME280;64378;55.596;13.014;2022-12-18T02:17:57;102684.19;;;18.66;29.13
75767;BME280;64378;55.596;13.014;2022-12-18T02:20:34;102684.44;;;18.65;29.31
75767;BME280;64378;55.596;13.014;2022-12-18T02:26:01;102689.03;;;18.64;28.91
75767;BME280;64378;55.596;13.014;2022-12-18T02:28:34;102682.75;;;18.64;29.15
75767;BME280;64378;55.596;13.014;2022-12-18T02:31:02;102692.81;;;18.63;29.01
75767;BME280;64378;55.596;13.014;2022-12-18T02:33:30;102682.94;;;18.62;29.42
75767;BME280;64378;55.596;13.014;2022-12-18T02:35:58;102689.25;;;18.63;29.34
75767;BME280;64378;55.596;13.014;2022-12-18T02:38:24;102676.63;;;18.62;29.23
75767;BME280;64378;55.596;13.014;2022-12-18T02:40:52;102687.56;;;18.62;29.25
75767;BME280;64378;55.596;13.014;2022-12-18T02:43:18;102691.34;;;18.61;29.26
75767;BME280;64378;55.596;13.014;2022-12-18T02:45:53;102693.03;;;18.62;29.47
75767;BME280;64378;55.596;13.014;2022-12-18T02:48:23;102687.56;;;18.62;29.23
75767;BME280;64378;55.596;13.014;2022-12-18T02:53:52;102680.19;;;18.62;29.23
75767;BME280;64378;55.596;13.014;2022-12-18T02:56:22;102685.66;;;18.62;29.33
75767;BME280;64378;55.596;13.014;2022-12-18T02:59:08;102684.84;;;18.62;29.25
75767;BME280;64378;55.596;13.014;2022-12-18T03:04:17;102679.56;;;18.60;29.12
75767;BME280;64378;55.596;13.014;2022-12-18T03:06:49;102675.78;;;18.61;28.98
75767;BME280;64378;55.596;13.014;2022-12-18T03:09:29;102678.72;;;18.60;29.48
75767;BME280;64378;55.596;13.014;2022-12-18T03:12:05;102675.16;;;18.59;29.34
75767;BME280;64378;55.596;13.014;2022-12-18T03:14:57;102683.38;;;18.59;28.91
75767;BME280;64378;55.596;13.014;2022-12-18T03:17:26;102684.44;;;18.58;29.13
75767;BME280;64378;55.596;13.014;2022-12-18T03:19:55;102686.53;;;18.56;29.04
75767;BME280;64378;55.596;13.014;2022-12-18T03:22:23;102692.63;;;18.58;29.03
75767;BME280;64378;55.596;13.014;2022-12-18T03:24:53;102685.66;;;18.56;29.01
75767;BME280;64378;55.596;13.014;2022-12-18T03:27:20;102691.75;;;18.58;28.97
75767;BME280;64378;55.596;13.014;2022-12-18T03:29:52;102691.75;;;18.58;29.17
75767;BME280;64378;55.596;13.014;2022-12-18T03:32:33;102687.56;;;18.55;29.05
75767;BME280;64378;55.596;13.014;2022-12-18T03:35:04;102687.34;;;18.57;28.90
75767;BME280;64378;55.596;13.014;2022-12-18T03:37:30;102684.84;;;18.55;28.96
75767;BME280;64378;55.596;13.014;2022-12-18T03:39:56;102683.56;;;18.58;29.08
75767;BME280;64378;55.596;13.014;2022-12-18T03:42:46;102681.88;;;18.57;29.08
75767;BME280;64378;55.596;13.014;2022-12-18T03:45:22;102693.66;;;18.57;29.03
75767;BME280;64378;55.596;13.014;2022-12-18T03:55:57;102683.16;;;18.54;28.79
75767;BME280;64378;55.596;13.014;2022-12-18T03:58:25;102689.66;;;18.53;29.11
75767;BME280;64378;55.596;13.014;2022-12-18T04:00:53;102691.34;;;18.54;29.04
75767;BME280;64378;55.596;13.014;2022-12-18T04:03:20;102686.72;;;18.55;29.10
75767;BME280;64378;55.596;13.014;2022-12-18T04:05:48;102686.72;;;18.55;28.86
75767;BME280;64378;55.596;13.014;2022-12-18T04:08:15;102683.16;;;18.54;29.13
75767;BME280;64378;55.596;13.014;2022-12-18T04:10:41;102692.19;;;18.55;29.04
75767;BME280;64378;55.596;13.014;2022-12-18T04:13:06;102678.50;;;18.55;29.36
75767;BME280;64378;55.596;13.014;2022-12-18T04:15:36;102686.72;;;18.55;29.19
75767;BME280;64378;55.596;13.014;2022-12-18T04:18:02;102687.75;;;18.54;29.13
75767;BME280;64378;55.596;13.014;2022-12-18T04:20:28;102686.94;;;18.53;28.85
75767;BME280;64378;55.596;13.014;2022-12-18T04:22:54;102679.56;;;18.54;29.04
75767;BME280;64378;55.596;13.014;2022-12-18T04:25:19;102681.47;;;18.53;29.22
75767;BME280;64378;55.596;13.014;2022-12-18T04:27:44;102683.34;;;18.53;29.22
75767;BME280;64378;55.596;13.014;2022-12-18T04:30:10;102686.06;;;18.53;29.55
75767;BME280;64378;55.596;13.014;2022-12-18T04:32:36;102686.72;;;18.55;29.15
75767;BME280;64378;55.596;13.014;2022-12-18T04:35:02;102698.69;;;18.54;29.32
75767;BME280;64378;55.596;13.014;2022-12-18T04:37:29;102696.81;;;18.54;29.50
75767;BME280;64378;55.596;13.014;2022-12-18T04:39:54;102691.75;;;18.52;29.53
75767;BME280;64378;55.596;13.014;2022-12-18T04:42:20;102689.66;;;18.53;29.52
75767;BME280;64378;55.596;13.014;2022-12-18T04:44:45;102682.50;;;18.52;29.61
75767;BME280;64378;55.596;13.014;2022-12-18T04:47:10;102665.25;;;18.52;29.42
75767;BME280;64378;55.596;13.014;2022-12-18T04:49:36;102666.09;;;18.52;29.19
75767;BME280;64378;55.596;13.014;2022-12-18T04:52:01;102663.56;;;18.51;29.38
75767;BME280;64378;55.596;13.014;2022-12-18T04:54:26;102676.19;;;18.52;29.31
75767;BME280;64378;55.596;13.014;2022-12-18T04:56:52;102687.13;;;18.52;29.42
75767;BME280;64378;55.596;13.014;2022-12-18T04:59:17;102690.91;;;18.51;29.59
75767;BME280;64378;55.596;13.014;2022-12-18T05:01:42;102687.34;;;18.51;29.50
75767;BME280;64378;55.596;13.014;2022-12-18T05:04:08;102692.81;;;18.51;29.30
75767;BME280;64378;55.596;13.014;2022-12-18T05:06:33;102706.47;;;18.51;29.39
75767;BME280;64378;55.596;13.014;2022-12-18T05:08:59;102696.59;;;18.50;29.51
75767;BME280;64378;55.596;13.014;2022-12-18T05:11:24;102703.94;;;18.49;29.24
75767;BME280;64378;55.596;13.014;2022-12-18T05:13:49;102706.47;;;18.51;29.29
75767;BME280;64378;55.596;13.014;2022-12-18T05:16:15;102713.00;;;18.50;29.43
75767;BME280;64378;55.596;13.014;2022-12-18T05:18:41;102713.00;;;18.50;29.41
75767;BME280;64378;55.596;13.014;2022-12-18T05:21:06;102720.34;;;18.49;29.26
75767;BME280;64378;55.596;13.014;2022-12-18T05:23:32;102718.47;;;18.50;29.41
75767;BME280;64378;55.596;13.014;2022-12-18T05:25:59;102697.63;;;18.49;29.59
75767;BME280;64378;55.596;13.014;2022-12-18T05:28:26;102708.56;;;18.49;29.21
75767;BME280;64378;55.596;13.014;2022-12-18T05:30:54;102705.84;;;18.49;29.31
75767;BME280;64378;55.596;13.014;2022-12-18T05:33:22;102710.44;;;18.48;29.39
75767;BME280;64378;55.596;13.014;2022-12-18T05:35:51;102700.59;;;18.47;29.22
75767;BME280;64378;55.596;13.014;2022-12-18T05:38:18;102703.31;;;18.47;29.03
75767;BME280;64378;55.596;13.014;2022-12-18T05:40:43;102717.81;;;18.48;29.33
75767;BME280;64378;55.596;13.014;2022-12-18T05:43:09;102713.41;;;18.47;29.50
75767;BME280;64378;55.596;13.014;2022-12-18T05:45:38;102718.88;;;18.47;29.44
75767;BME280;64378;55.596;13.014;2022-12-18T05:48:04;102721.59;;;18.47;29.33
75767;BME280;64378;55.596;13.014;2022-12-18T05:50:30;102717.19;;;18.46;29.50
75767;BME280;64378;55.596;13.014;2022-12-18T05:52:55;102724.34;;;18.47;29.24
75767;BME280;64378;55.596;13.014;2022-12-18T05:55:20;102716.53;;;18.44;29.17
75767;BME280;64378;55.596;13.014;2022-12-18T05:57:46;102728.13;;;18.46;29.34
75767;BME280;64378;55.596;13.014;2022-12-18T06:00:12;102725.59;;;18.44;29.15
75767;BME280;64378;55.596;13.014;2022-12-18T06:02:37;102727.47;;;18.44;29.19
75767;BME280;64378;55.596;13.014;2022-12-18T06:05:03;102736.53;;;18.44;29.37
75767;BME280;64378;55.596;13.014;2022-12-18T06:07:28;102734.84;;;18.43;29.28
75767;BME280;64378;55.596;13.014;2022-12-18T06:09:53;102726.66;;;18.43;29.17
75767;BME280;64378;55.596;13.014;2022-12-18T06:12:19;102726.84;;;18.42;29.27
75767;BME280;64378;55.596;13.014;2022-12-18T06:14:44;102724.09;;;18.42;29.40
75767;BME280;64378;55.596;13.014;2022-12-18T06:17:10;102719.69;;;18.41;29.20
75767;BME280;64378;55.596;13.014;2022-12-18T06:19:35;102718.63;;;18.42;29.31
75767;BME280;64378;55.596;13.014;2022-12-18T06:22:00;102727.69;;;18.42;29.10
75767;BME280;64378;55.596;13.014;2022-12-18T06:24:26;102721.59;;;18.40;29.46
75767;BME280;64378;55.596;13.014;2022-12-18T06:26:51;102717.81;;;18.41;29.33
75767;BME280;64378;55.596;13.014;2022-12-18T06:29:16;102713.41;;;18.40;29.21
75767;BME280;64378;55.596;13.014;2022-12-18T06:31:42;102701.41;;;18.41;29.59
75767;BME280;64378;55.596;13.014;2022-12-18T06:34:07;102707.72;;;18.42;29.31
75767;BME280;64378;55.596;13.014;2022-12-18T06:36:32;102711.28;;;18.42;29.10
75767;BME280;64378;55.596;13.014;2022-12-18T06:38:58;102706.88;;;18.41;29.12
75767;BME280;64378;55.596;13.014;2022-12-18T06:41:24;102724.97;;;18.42;29.31
75767;BME280;64378;55.596;13.014;2022-12-18T06:43:49;102743.25;;;18.42;29.26
75767;BME280;64378;55.596;13.014;2022-12-18T06:46:15;102742.41;;;18.41;29.20
75767;BME280;64378;55.596;13.014;2022-12-18T06:48:40;102740.72;;;18.40;29.18
75767;BME280;64378;55.596;13.014;2022-12-18T06:51:06;102751.44;;;18.42;28.87
75767;BME280;64378;55.596;13.014;2022-12-18T06:53:32;102754.41;;;18.40;29.09
75767;BME280;64378;55.596;13.014;2022-12-18T06:56:02;102751.22;;;18.37;28.88
75767;BME280;64378;55.596;13.014;2022-12-18T06:58:27;102755.44;;;18.39;29.19
75767;BME280;64378;55.596;13.014;2022-12-18T07:00:53;102755.63;;;18.38;29.23
75767;BME280;64378;55.596;13.014;2022-12-18T07:03:18;102760.25;;;18.37;28.99
75767;BME280;64378;55.596;13.014;2022-12-18T07:05:43;102780.22;;;18.38;29.14
75767;BME280;64378;55.596;13.014;2022-12-18T07:08:09;102782.13;;;18.37;29.05
75767;BME280;64378;55.596;13.014;2022-12-18T07:10:41;102786.72;;;18.37;28.92
75767;BME280;64378;55.596;13.014;2022-12-18T07:13:06;102787.59;;;18.37;29.14
75767;BME280;64378;55.596;13.014;2022-12-18T07:15:31;102793.06;;;18.37;29.46
75767;BME280;64378;55.596;13.014;2022-12-18T07:17:57;102797.66;;;18.37;29.24
75767;BME280;64378;55.596;13.014;2022-12-18T07:20:22;102785.91;;;18.36;29.42
75767;BME280;64378;55.596;13.014;2022-12-18T07:22:47;102795.97;;;18.36;29.09
75767;BME280;64378;55.596;13.014;2022-12-18T07:25:13;102795.16;;;18.35;29.15
75767;BME280;64378;55.596;13.014;2022-12-18T07:27:38;102807.78;;;18.36;29.27
75767;BME280;64378;55.596;13.014;2022-12-18T07:30:04;102808.59;;;18.37;29.14
75767;BME280;64378;55.596;13.014;2022-12-18T07:32:30;102805.03;;;18.36;29.27
75767;BME280;64378;55.596;13.014;2022-12-18T07:34:55;102814.06;;;18.37;29.30
75767;BME280;64378;55.596;13.014;2022-12-18T07:37:21;102804.00;;;18.37;29.28
75767;BME280;64378;55.596;13.014;2022-12-18T07:39:46;102805.88;;;18.37;29.40
75767;BME280;64378;55.596;13.014;2022-12-18T07:42:11;102804.81;;;18.38;29.42
75767;BME280;64378;55.596;13.014;2022-12-18T07:44:55;102807.56;;;18.38;29.41
75767;BME280;64378;55.596;13.014;2022-12-18T07:47:21;102807.56;;;18.38;29.12
75767;BME280;64378;55.596;13.014;2022-12-18T07:49:46;102811.16;;;18.38;29.08
75767;BME280;64378;55.596;13.014;2022-12-18T07:52:12;102818.50;;;18.38;29.42
75767;BME280;64378;55.596;13.014;2022-12-18T07:54:37;102813.88;;;18.38;29.18
75767;BME280;64378;55.596;13.014;2022-12-18T07:57:03;102818.31;;;18.39;28.84
75767;BME280;64378;55.596;13.014;2022-12-18T07:59:28;102813.88;;;18.38;28.97
75767;BME280;64378;55.596;13.014;2022-12-18T08:01:54;102815.56;;;18.39;29.10
75767;BME280;64378;55.596;13.014;2022-12-18T08:04:19;102810.09;;;18.39;29.17
75767;BME280;64378;55.596;13.014;2022-12-18T08:06:45;102806.50;;;18.39;28.96
75767;BME280;64378;55.596;13.014;2022-12-18T08:09:10;102811.97;;;18.39;29.23
75767;BME280;64378;55.596;13.014;2022-12-18T08:11:35;102816.41;;;18.40;29.14
75767;BME280;64378;55.596;13.014;2022-12-18T08:14:01;102817.84;;;18.36;29.08
75767;BME280;64378;55.596;13.014;2022-12-18T08:16:26;102825.84;;;18.37;29.19
75767;BME280;64378;55.596;13.014;2022-12-18T08:18:53;102824.59;;;18.40;29.16
75767;BME280;64378;55.596;13.014;2022-12-18T08:21:22;102819.13;;;18.40;29.34
75767;BME280;64378;55.596;13.014;2022-12-18T08:23:49;102815.56;;;18.39;29.13
75767;BME280;64378;55.596;13.014;2022-12-18T08:26:15;102815.34;;;18.41;29.16
75767;BME280;64378;55.596;13.014;2022-12-18T08:28:41;102822.50;;;18.42;29.35
75767;BME280;64378;55.596;13.014;2022-12-18T08:31:07;102817.91;;;18.42;28.92
75767;BME280;64378;55.596;13.014;2022-12-18T08:33:33;102819.38;;;18.45;29.29
75767;BME280;64378;55.596;13.014;2022-12-18T08:35:59;102816.63;;;18.45;29.20
75767;BME280;64378;55.596;13.014;2022-12-18T08:38:25;102834.31;;;18.49;29.35
75767;BME280;64378;55.596;13.014;2022-12-18T08:40:59;102834.31;;;18.49;29.39
75767;BME280;64378;55.596;13.014;2022-12-18T08:43:25;102841.06;;;18.52;29.14
75767;BME280;64378;55.596;13.014;2022-12-18T08:46:09;102843.81;;;18.52;29.10
75767;BME280;64378;55.596;13.014;2022-12-18T08:48:34;102841.50;;;18.56;29.10
75767;BME280;64378;55.596;13.014;2022-12-18T08:51:00;102824.03;;;18.57;29.15
75767;BME280;64378;55.596;13.014;2022-12-18T08:53:26;102843.00;;;18.58;29.31
75767;BME280;64378;55.596;13.014;2022-12-18T08:55:52;102843.81;;;18.59;29.37
75767;BME280;64378;55.596;13.014;2022-12-18T08:58:18;102858.13;;;18.61;29.14
75767;BME280;64378;55.596;13.014;2022-12-18T09:00:44;102849.94;;;18.61;29.33
75767;BME280;64378;55.596;13.014;2022-12-18T09:03:17;102850.75;;;18.61;29.40
75767;BME280;64378;55.596;13.014;2022-12-18T09:05:43;102843.59;;;18.60;29.26
75767;BME280;64378;55.596;13.014;2022-12-18T09:08:10;102847.63;;;18.64;28.98
75767;BME280;64378;55.596;13.014;2022-12-18T09:10:44;102851.00;;;18.66;29.53
75767;BME280;64378;55.596;13.014;2022-12-18T09:13:11;102861.94;;;18.66;29.15
75767;BME280;64378;55.596;13.014;2022-12-18T09:15:48;102859.03;;;18.68;29.60
75767;BME280;64378;55.596;13.014;2022-12-18T09:18:16;102863.44;;;18.69;29.19
75767;BME280;64378;55.596;13.014;2022-12-18T09:20:41;102858.81;;;18.69;29.21
75767;BME280;64378;55.596;13.014;2022-12-18T09:23:08;102867.88;;;18.70;29.10
75767;BME280;64378;55.596;13.014;2022-12-18T09:25:34;102868.69;;;18.70;29.37
75767;BME280;64378;55.596;13.014;2022-12-18T09:28:02;102879.63;;;18.70;28.87
75767;BME280;64378;55.596;13.014;2022-12-18T09:30:27;102886.78;;;18.71;29.02
75767;BME280;64378;55.596;13.014;2022-12-18T09:32:53;102885.53;;;18.74;29.66
75767;BME280;64378;55.596;13.014;2022-12-18T09:35:18;102874.19;;;18.77;29.66
75767;BME280;64378;55.596;13.014;2022-12-18T09:37:43;102880.50;;;18.77;29.41
75767;BME280;64378;55.596;13.014;2022-12-18T09:40:21;102886.41;;;18.81;29.61
75767;BME280;64378;55.596;13.014;2022-12-18T09:43:03;102881.56;;;18.83;29.49
75767;BME280;64378;55.596;13.014;2022-12-18T09:45:39;102886.63;;;18.86;29.67
75767;BME280;64378;55.596;13.014;2022-12-18T09:48:15;102880.94;;;18.87;29.84
75767;BME280;64378;55.596;13.014;2022-12-18T09:50:44;102878.03;;;18.89;29.76
75767;BME280;64378;55.596;13.014;2022-12-18T09:53:24;102872.97;;;18.92;29.78
75767;BME280;64378;55.596;13.014;2022-12-18T09:55:52;102881.19;;;18.92;29.78
75767;BME280;64378;55.596;13.014;2022-12-18T10:00:52;102876.34;;;18.94;30.52
75767;BME280;64378;55.596;13.014;2022-12-18T10:03:18;102878.03;;;18.95;30.11
75767;BME280;64378;55.596;13.014;2022-12-18T10:10:51;102871.50;;;18.96;29.90
75767;BME280;64378;55.596;13.014;2022-12-18T10:13:43;102870.69;;;18.96;29.91
75767;BME280;64378;55.596;13.014;2022-12-18T10:16:17;102876.16;;;18.96;29.81
75767;BME280;64378;55.596;13.014;2022-12-18T10:21:48;102875.94;;;18.97;29.92
75767;BME280;64378;55.596;13.014;2022-12-18T10:24:39;102882.28;;;18.98;29.87
75767;BME280;64378;55.596;13.014;2022-12-18T10:27:16;102878.69;;;18.97;29.98
75767;BME280;64378;55.596;13.014;2022-12-18T10:29:45;102876.59;;;18.99;29.91
75767;BME280;64378;55.596;13.014;2022-12-18T10:32:16;102860.16;;;18.99;29.54
75767;BME280;64378;55.596;13.014;2022-12-18T10:34:51;102863.53;;;19.01;30.15
75767;BME280;64378;55.596;13.014;2022-12-18T10:37:19;102856.38;;;19.00;30.03
75767;BME280;64378;55.596;13.014;2022-12-18T10:39:46;102866.06;;;19.03;29.78
75767;BME280;64378;55.596;13.014;2022-12-18T10:42:19;102860.59;;;19.03;29.62
75767;BME280;64378;55.596;13.014;2022-12-18T10:44:45;102864.81;;;19.05;29.74
75767;BME280;64378;55.596;13.014;2022-12-18T10:47:19;102863.97;;;19.05;29.65
75767;BME280;64378;55.596;13.014;2022-12-18T10:49:51;102868.59;;;19.04;29.88
75767;BME280;64378;55.596;13.014;2022-12-18T10:52:21;102869.44;;;19.05;29.78
75767;BME280;64378;55.596;13.014;2022-12-18T10:55:02;102866.69;;;19.05;29.70
75767;BME280;64378;55.596;13.014;2022-12-18T10:57:39;102871.97;;;19.06;29.51
75767;BME280;64378;55.596;13.014;2022-12-18T11:00:30;102868.84;;;19.09;29.88
75767;BME280;64378;55.596;13.014;2022-12-18T11:02:56;102871.56;;;19.09;29.72
75767;BME280;64378;55.596;13.014;2022-12-18T11:05:33;102863.13;;;19.11;29.89
75767;BME280;64378;55.596;13.014;2022-12-18T11:08:00;102867.56;;;19.12;29.51
75767;BME280;64378;55.596;13.014;2022-12-18T11:10:30;102882.56;;;19.16;29.38
75767;BME280;64378;55.596;13.014;2022-12-18T11:13:18;102879.81;;;19.16;29.46
75767;BME280;64378;55.596;13.014;2022-12-18T11:15:45;102880.47;;;19.18;29.39
75767;BME280;64378;55.596;13.014;2022-12-18T11:18:26;102874.97;;;19.18;29.22
75767;BME280;64378;55.596;13.014;2022-12-18T11:21:14;102883.84;;;19.20;29.39
75767;BME280;64378;55.596;13.014;2022-12-18T11:23:50;102869.75;;;19.23;29.20
75767;BME280;64378;55.596;13.014;2022-12-18T11:26:16;102862.34;;;19.23;29.35
75767;BME280;64378;55.596;13.014;2022-12-18T11:28:52;102857.50;;;19.25;29.37
75767;BME280;64378;55.596;13.014;2022-12-18T11:31:32;102872.88;;;19.26;29.11
75767;BME280;64378;55.596;13.014;2022-12-18T11:34:05;102869.09;;;19.27;29.07
75767;BME280;64378;55.596;13.014;2022-12-18T11:36:47;102891.63;;;19.29;28.98
75767;BME280;64378;55.596;13.014;2022-12-18T11:39:35;102878.59;;;19.31;29.00
75767;BME280;64378;55.596;13.014;2022-12-18T11:42:09;102890.19;;;19.33;29.43
75767;BME280;64378;55.596;13.014;2022-12-18T11:45:00;102878.19;;;19.34;28.98
75767;BME280;64378;55.596;13.014;2022-12-18T11:47:49;102885.13;;;19.37;29.06
75767;BME280;64378;55.596;13.014;2022-12-18T11:50:20;102891.63;;;19.36;28.98
75767;BME280;64378;55.596;13.014;2022-12-18T11:52:47;102893.09;;;19.38;28.88
75767;BME280;64378;55.596;13.014;2022-12-18T11:55:23;102889.31;;;19.39;28.91
75767;BME280;64378;55.596;13.014;2022-12-18T12:00:19;102886.56;;;19.39;29.00
75767;BME280;64378;55.596;13.014;2022-12-18T12:08:53;102893.56;;;19.42;28.45
75767;BME280;64378;55.596;13.014;2022-12-18T12:14:32;102898.16;;;19.41;29.12
75767;BME280;64378;55.596;13.014;2022-12-18T12:19:45;102909.34;;;19.40;28.83
75767;BME280;64378;55.596;13.014;2022-12-18T12:28:28;102909.53;;;19.38;28.44
75767;BME280;64378;55.596;13.014;2022-12-18T12:33:38;102917.97;;;19.37;28.63
75767;BME280;64378;55.596;13.014;2022-12-18T12:38:48;102919.88;;;19.36;28.90
75767;BME280;64378;55.596;13.014;2022-12-18T12:41:19;102922.63;;;19.36;28.58
75767;BME280;64378;55.596;13.014;2022-12-18T12:44:09;102922.63;;;19.36;28.61
75767;BME280;64378;55.596;13.014;2022-12-18T12:46:40;102927.22;;;19.36;28.70
75767;BME280;64378;55.596;13.014;2022-12-18T12:49:27;102926.41;;;19.35;28.65
75767;BME280;64378;55.596;13.014;2022-12-18T12:52:05;102925.53;;;19.35;28.73
75767;BME280;64378;55.596;13.014;2022-12-18T12:54:33;102927.00;;;19.37;28.78
75767;BME280;64378;55.596;13.014;2022-12-18T13:00:11;102922.63;;;19.36;28.43
75767;BME280;64378;55.596;13.014;2022-12-18T13:02:59;102910.16;;;19.34;28.58
75767;BME280;64378;55.596;13.014;2022-12-18T13:05:47;102922.63;;;19.36;28.76
75767;BME280;64378;55.596;13.014;2022-12-18T13:08:29;102913.53;;;19.36;28.56
75767;BME280;64378;55.596;13.014;2022-12-18T13:10:57;102919.25;;;19.34;28.72
75767;BME280;64378;55.596;13.014;2022-12-18T13:16:18;102912.91;;;19.34;28.62
75767;BME280;64378;55.596;13.014;2022-12-18T13:18:49;102908.28;;;19.34;28.46
75767;BME280;64378;55.596;13.014;2022-12-18T13:21:28;102909.34;;;19.33;28.49
75767;BME280;64378;55.596;13.014;2022-12-18T13:23:53;102902.38;;;19.31;28.43
75767;BME280;64378;55.596;13.014;2022-12-18T13:28:52;102909.53;;;19.32;28.63
75767;BME280;64378;55.596;13.014;2022-12-18T13:34:15;102914.19;;;19.31;28.41
75767;BME280;64378;55.596;13.014;2022-12-18T13:36:41;102908.69;;;19.31;28.73
75767;BME280;64378;55.596;13.014;2022-12-18T13:41:41;102914.19;;;19.31;28.52
75767;BME280;64378;55.596;13.014;2022-12-18T13:46:56;102902.59;;;19.29;28.54
75767;BME280;64378;55.596;13.014;2022-12-18T13:49:43;102918.16;;;19.29;28.21
75767;BME280;64378;55.596;13.014;2022-12-18T13:52:27;102924.50;;;19.29;28.61
75767;BME280;64378;55.596;13.014;2022-12-18T13:54:55;102910.81;;;19.29;28.52
75767;BME280;64378;55.596;13.014;2022-12-18T13:59:50;102921.94;;;19.28;28.54
75767;BME280;64378;55.596;13.014;2022-12-18T14:02:19;102912.91;;;19.27;28.53
75767;BME280;64378;55.596;13.014;2022-12-18T14:04:47;102921.94;;;19.28;28.47
75767;BME280;64378;55.596;13.014;2022-12-18T14:07:16;102920.88;;;19.29;28.28
75767;BME280;64378;55.596;13.014;2022-12-18T14:09:46;102918.16;;;19.29;28.51